Eems Servant — PBTI — position and weather

sailwx.info

Track history (hours):
 
Tides and Currents Weather Stations Pressure Air Temp Water Temp Dewpoint Dewpoint Depression Visibility Wind Speed Wind Dir Waves Ship Positions

Eems Servant

Last reported at 2016-Dec-03 03:25 UTC. Time now 2016-Dec-05 04:30 UTC.
Position N 63°09' E 007°04'.

Length 87 m; draft 4.5 m.

Type: Cargo ship. MMSI: 246236000.

Date/timePositionNaut miles runAvg speedWind from/ knotsBaromVisibWave heightAir tempDewpointWater temp
2016-Dec-03 03:25N 63°09' E 007°04'5 5.3
2016-Dec-03 02:33N 63°11' E 007°13'5 5.0
2016-Dec-03 01:33N 63°13' E 007°24'5 5.4
2016-Dec-03 00:33N 63°15' E 007°35'5 5.2
2016-Dec-02 23:33N 63°13' E 007°46'14 7.0
2016-Dec-02 21:30N 63°11' E 007°14'7 7.4
2016-Dec-02 20:32N 63°14' E 007°29'7 7.1
2016-Dec-02 19:33N 63°13' E 007°44'7 6.8
2016-Dec-02 18:33N 63°07' E 007°41'10 8.2
2016-Dec-02 17:21N 62°58' E 007°51'2024.8
2016-Dec-02 16:33N 62°45' E 008°25'5 5.4
2016-Dec-02 15:33N 62°41' E 008°33'0 0.1
2016-Dec-02 14:32N 62°41' E 008°33'0 0.0
2016-Dec-02 13:32N 62°41' E 008°33'2828.6
2016-Dec-02 12:33N 63°01' E 007°49'0 0.0
2016-Dec-02 11:30N 63°01' E 007°49'0 0.0
2016-Dec-02 10:32N 63°01' E 007°49'0 0.1
2016-Dec-02 09:32N 63°01' E 007°49'0 0.0
2016-Dec-02 08:33N 63°01' E 007°49'0 0.1
2016-Dec-02 07:29N 63°01' E 007°49'0 0.0
2016-Dec-02 06:31N 63°01' E 007°49'0 0.0
2016-Dec-02 05:33N 63°01' E 007°49'0 0.0
2016-Dec-02 04:32N 63°01' E 007°49'0 0.0
2016-Dec-02 03:33N 63°01' E 007°49'0 0.0
2016-Dec-02 02:31N 63°01' E 007°49'0 0.0
2016-Dec-02 01:31N 63°01' E 007°49'0 0.0
2016-Dec-02 00:33N 63°01' E 007°49'0 0.0
2016-Dec-01 23:32N 63°01' E 007°49'0 0.0
2016-Dec-01 22:33N 63°01' E 007°49'0 0.0
2016-Dec-01 21:32N 63°01' E 007°49'0 0.0
2016-Dec-01 20:33N 63°01' E 007°49'0 0.0
2016-Dec-01 19:33N 63°01' E 007°49'0 0.0
2016-Dec-01 18:32N 63°01' E 007°49'0 0.0
2016-Dec-01 17:33N 63°01' E 007°49'0 0.0
2016-Dec-01 16:31N 63°01' E 007°49'0 0.0
2016-Dec-01 15:31N 63°01' E 007°49'0 0.0
2016-Dec-01 14:33N 63°01' E 007°49'0 0.0
2016-Dec-01 13:32N 63°01' E 007°49'0 0.0
2016-Dec-01 12:33N 63°01' E 007°49'0 0.0
2016-Dec-01 11:30N 63°01' E 007°49'0 0.0
2016-Dec-01 10:32N 63°01' E 007°49'0 0.0
2016-Dec-01 09:31N 63°01' E 007°49'6 6.1
2016-Dec-01 08:33N 62°59' E 008°01'6 6.3
2016-Dec-01 07:33N 63°00' E 007°48'1 0.7
2016-Dec-01 06:32N 63°01' E 007°49'0 0.0
2016-Dec-01 05:31N 63°01' E 007°49'0 0.0
2016-Dec-01 04:32N 63°01' E 007°49'0 0.0
2016-Dec-01 03:32N 63°01' E 007°49'3 3.0
2016-Dec-01 02:33N 63°03' E 007°54'5 5.3
2016-Dec-01 01:33N 63°08' E 007°52'5 5.2
2016-Dec-01 00:33N 63°12' E 007°46'6 5.6
2016-Nov-30 23:33N 63°15' E 007°34'6 5.9
2016-Nov-30 22:33N 63°13' E 007°22'6 6.1
2016-Nov-30 21:33N 63°10' E 007°10'6 6.2
2016-Nov-30 20:32N 63°08' E 006°57'6 6.6
2016-Nov-30 19:33N 63°05' E 006°44'6 6.4
2016-Nov-30 18:34N 63°03' E 006°31'5 5.4
2016-Nov-30 17:33N 63°00' E 006°21'6 5.8
2016-Nov-30 16:33N 62°56' E 006°11'5 5.4
2016-Nov-30 15:33N 62°52' E 006°04'29 6.5
2016-Nov-30 11:10N 62°30' E 005°23'3 5.2
2016-Nov-30 10:33N 62°28' E 005°19'7 6.9
2016-Nov-30 09:33N 62°22' E 005°09'6 6.1
2016-Nov-30 08:33N 62°18' E 005°00'6 5.9
2016-Nov-30 07:33N 62°13' E 004°52'6 6.1
2016-Nov-30 06:33N 62°08' E 004°46'6 5.9
2016-Nov-30 05:33N 62°03' E 004°38'7 6.6
2016-Nov-30 04:33N 61°57' E 004°31'111108.8
2016-Nov-30 03:31N 63°01' E 007°49'0 0.0
2016-Nov-30 02:31N 63°01' E 007°49'0 0.0
2016-Nov-30 01:22N 63°01' E 007°49'0 0.0
2016-Nov-30 00:28N 63°01' E 007°49'0 0.0
2016-Nov-29 23:31N 63°01' E 007°49'0 0.0
2016-Nov-29 22:31N 63°01' E 007°49'0 0.1
2016-Nov-29 21:31N 63°01' E 007°49'0 0.0
2016-Nov-29 20:25N 63°01' E 007°49'0 0.0
2016-Nov-29 19:31N 63°01' E 007°49'0 0.0
2016-Nov-29 18:31N 63°01' E 007°49'0 0.0
2016-Nov-29 17:31N 63°01' E 007°49'0 0.0
2016-Nov-29 16:31N 63°01' E 007°49'0 0.0
2016-Nov-29 15:31N 63°01' E 007°49'0 0.0
2016-Nov-29 14:31N 63°01' E 007°49'0 0.0
2016-Nov-29 13:31N 63°01' E 007°49'0 0.0
2016-Nov-29 12:31N 63°01' E 007°49'0 0.0
2016-Nov-29 11:31N 63°01' E 007°49'0 0.0
2016-Nov-29 10:31N 63°01' E 007°49'0 0.0
2016-Nov-29 09:28N 63°01' E 007°49'0 0.0
2016-Nov-29 08:31N 63°01' E 007°49'0 0.0
2016-Nov-29 07:16N 63°01' E 007°49'0 0.0
2016-Nov-29 06:28N 63°01' E 007°49'0 0.0
2016-Nov-29 05:28N 63°01' E 007°49'0 0.0
2016-Nov-29 04:31N 63°01' E 007°49'0 0.0
2016-Nov-29 03:31N 63°01' E 007°49'0 0.0
2016-Nov-29 02:31N 63°01' E 007°49'0 0.0
2016-Nov-29 01:31N 63°01' E 007°49'0 0.0
2016-Nov-29 00:28N 63°01' E 007°49'0 0.0
2016-Nov-28 23:28N 63°01' E 007°49'0 0.0
2016-Nov-28 22:31N 63°01' E 007°49'0 0.0
2016-Nov-28 21:31N 63°01' E 007°49'0 0.0
2016-Nov-28 20:28N 63°01' E 007°49'0 0.0
2016-Nov-28 19:31N 63°01' E 007°49'0 0.0
2016-Nov-28 18:31N 63°01' E 007°49'0 0.0
2016-Nov-28 17:31N 63°01' E 007°49'0 0.0
2016-Nov-28 16:34N 63°01' E 007°49'3 2.8
2016-Nov-28 15:34N 63°03' E 007°54'8 7.7
2016-Nov-28 14:33N 63°10' E 007°47'8 7.5
2016-Nov-28 13:34N 63°15' E 007°34'9 9.3
2016-Nov-28 12:33N 63°11' E 007°15'46 9.0
2016-Nov-28 07:26N 62°46' E 005°52'20 9.3
2016-Nov-28 05:17N 62°30' E 005°23'8 9.2
2016-Nov-28 04:25N 62°24' E 005°13'8 8.7
2016-Nov-28 03:30N 62°18' E 005°01'315 7.3
2016-Nov-26 08:09N 58°45' W 002°49'5 8.0
2016-Nov-26 07:33N 58°43' W 002°57'1211.7
2016-Nov-26 06:32N 58°43' W 003°20'1010.6
2016-Nov-26 05:34N 58°42' W 003°40'201 7.6
2016-Nov-25 03:06N 55°49' W 006°46'5 8.5
2016-Nov-25 02:33N 55°45' W 006°41'9 9.1
2016-Nov-25 01:33N 55°38' W 006°31'1010.4
2016-Nov-25 00:33N 55°30' W 006°20'1110.6
2016-Nov-24 23:33N 55°25' W 006°03'  
Track history (hours):
 
Tides and Currents Weather Stations Pressure Air Temp Water Temp Dewpoint Dewpoint Depression Visibility Wind Speed Wind Dir Waves Ship Positions

Eems Servant

Last reported at 2016-Dec-03 03:25 UTC. Time now 2016-Dec-05 04:30 UTC.
Position N 63°09' E 007°04'.

Length 87 m; draft 4.5 m.

Type: Cargo ship. MMSI: 246236000.

Date/timePositionNaut miles runAvg speedWind from/ knotsBaromVisibWave heightAir tempDewpointWater temp
2016-Dec-03 03:25N 63°09' E 007°04'5 5.3
2016-Dec-03 02:33N 63°11' E 007°13'5 5.0
2016-Dec-03 01:33N 63°13' E 007°24'5 5.4
2016-Dec-03 00:33N 63°15' E 007°35'5 5.2
2016-Dec-02 23:33N 63°13' E 007°46'14 7.0
2016-Dec-02 21:30N 63°11' E 007°14'7 7.4
2016-Dec-02 20:32N 63°14' E 007°29'7 7.1
2016-Dec-02 19:33N 63°13' E 007°44'7 6.8
2016-Dec-02 18:33N 63°07' E 007°41'10 8.2
2016-Dec-02 17:21N 62°58' E 007°51'2024.8
2016-Dec-02 16:33N 62°45' E 008°25'5 5.4
2016-Dec-02 15:33N 62°41' E 008°33'0 0.1
2016-Dec-02 14:32N 62°41' E 008°33'0 0.0
2016-Dec-02 13:32N 62°41' E 008°33'2828.6
2016-Dec-02 12:33N 63°01' E 007°49'0 0.0
2016-Dec-02 11:30N 63°01' E 007°49'0 0.0
2016-Dec-02 10:32N 63°01' E 007°49'0 0.1
2016-Dec-02 09:32N 63°01' E 007°49'0 0.0
2016-Dec-02 08:33N 63°01' E 007°49'0 0.1
2016-Dec-02 07:29N 63°01' E 007°49'0 0.0
2016-Dec-02 06:31N 63°01' E 007°49'0 0.0
2016-Dec-02 05:33N 63°01' E 007°49'0 0.0
2016-Dec-02 04:32N 63°01' E 007°49'0 0.0
2016-Dec-02 03:33N 63°01' E 007°49'0 0.0
2016-Dec-02 02:31N 63°01' E 007°49'0 0.0
2016-Dec-02 01:31N 63°01' E 007°49'0 0.0
2016-Dec-02 00:33N 63°01' E 007°49'0 0.0
2016-Dec-01 23:32N 63°01' E 007°49'0 0.0
2016-Dec-01 22:33N 63°01' E 007°49'0 0.0
2016-Dec-01 21:32N 63°01' E 007°49'0 0.0
2016-Dec-01 20:33N 63°01' E 007°49'0 0.0
2016-Dec-01 19:33N 63°01' E 007°49'0 0.0
2016-Dec-01 18:32N 63°01' E 007°49'0 0.0
2016-Dec-01 17:33N 63°01' E 007°49'0 0.0
2016-Dec-01 16:31N 63°01' E 007°49'0 0.0
2016-Dec-01 15:31N 63°01' E 007°49'0 0.0
2016-Dec-01 14:33N 63°01' E 007°49'0 0.0
2016-Dec-01 13:32N 63°01' E 007°49'0 0.0
2016-Dec-01 12:33N 63°01' E 007°49'0 0.0
2016-Dec-01 11:30N 63°01' E 007°49'0 0.0
2016-Dec-01 10:32N 63°01' E 007°49'0 0.0
2016-Dec-01 09:31N 63°01' E 007°49'6 6.1
2016-Dec-01 08:33N 62°59' E 008°01'6 6.3
2016-Dec-01 07:33N 63°00' E 007°48'1 0.7
2016-Dec-01 06:32N 63°01' E 007°49'0 0.0
2016-Dec-01 05:31N 63°01' E 007°49'0 0.0
2016-Dec-01 04:32N 63°01' E 007°49'0 0.0
2016-Dec-01 03:32N 63°01' E 007°49'3 3.0
2016-Dec-01 02:33N 63°03' E 007°54'5 5.3
2016-Dec-01 01:33N 63°08' E 007°52'5 5.2
2016-Dec-01 00:33N 63°12' E 007°46'6 5.6
2016-Nov-30 23:33N 63°15' E 007°34'6 5.9
2016-Nov-30 22:33N 63°13' E 007°22'6 6.1
2016-Nov-30 21:33N 63°10' E 007°10'6 6.2
2016-Nov-30 20:32N 63°08' E 006°57'6 6.6
2016-Nov-30 19:33N 63°05' E 006°44'6 6.4
2016-Nov-30 18:34N 63°03' E 006°31'5 5.4
2016-Nov-30 17:33N 63°00' E 006°21'6 5.8
2016-Nov-30 16:33N 62°56' E 006°11'5 5.4
2016-Nov-30 15:33N 62°52' E 006°04'29 6.5
2016-Nov-30 11:10N 62°30' E 005°23'3 5.2
2016-Nov-30 10:33N 62°28' E 005°19'7 6.9
2016-Nov-30 09:33N 62°22' E 005°09'6 6.1
2016-Nov-30 08:33N 62°18' E 005°00'6 5.9
2016-Nov-30 07:33N 62°13' E 004°52'6 6.1
2016-Nov-30 06:33N 62°08' E 004°46'6 5.9
2016-Nov-30 05:33N 62°03' E 004°38'7 6.6
2016-Nov-30 04:33N 61°57' E 004°31'111108.8
2016-Nov-30 03:31N 63°01' E 007°49'0 0.0
2016-Nov-30 02:31N 63°01' E 007°49'0 0.0
2016-Nov-30 01:22N 63°01' E 007°49'0 0.0
2016-Nov-30 00:28N 63°01' E 007°49'0 0.0
2016-Nov-29 23:31N 63°01' E 007°49'0 0.0
2016-Nov-29 22:31N 63°01' E 007°49'0 0.1
2016-Nov-29 21:31N 63°01' E 007°49'0 0.0
2016-Nov-29 20:25N 63°01' E 007°49'0 0.0
2016-Nov-29 19:31N 63°01' E 007°49'0 0.0
2016-Nov-29 18:31N 63°01' E 007°49'0 0.0
2016-Nov-29 17:31N 63°01' E 007°49'0 0.0
2016-Nov-29 16:31N 63°01' E 007°49'0 0.0
2016-Nov-29 15:31N 63°01' E 007°49'0 0.0
2016-Nov-29 14:31N 63°01' E 007°49'0 0.0
2016-Nov-29 13:31N 63°01' E 007°49'0 0.0
2016-Nov-29 12:31N 63°01' E 007°49'0 0.0
2016-Nov-29 11:31N 63°01' E 007°49'0 0.0
2016-Nov-29 10:31N 63°01' E 007°49'0 0.0
2016-Nov-29 09:28N 63°01' E 007°49'0 0.0
2016-Nov-29 08:31N 63°01' E 007°49'0 0.0
2016-Nov-29 07:16N 63°01' E 007°49'0 0.0
2016-Nov-29 06:28N 63°01' E 007°49'0 0.0
2016-Nov-29 05:28N 63°01' E 007°49'0 0.0
2016-Nov-29 04:31N 63°01' E 007°49'0 0.0
2016-Nov-29 03:31N 63°01' E 007°49'0 0.0
2016-Nov-29 02:31N 63°01' E 007°49'0 0.0
2016-Nov-29 01:31N 63°01' E 007°49'0 0.0
2016-Nov-29 00:28N 63°01' E 007°49'0 0.0
2016-Nov-28 23:28N 63°01' E 007°49'0 0.0
2016-Nov-28 22:31N 63°01' E 007°49'0 0.0
2016-Nov-28 21:31N 63°01' E 007°49'0 0.0
2016-Nov-28 20:28N 63°01' E 007°49'0 0.0
2016-Nov-28 19:31N 63°01' E 007°49'0 0.0
2016-Nov-28 18:31N 63°01' E 007°49'0 0.0
2016-Nov-28 17:31N 63°01' E 007°49'0 0.0
2016-Nov-28 16:34N 63°01' E 007°49'3 2.8
2016-Nov-28 15:34N 63°03' E 007°54'8 7.7
2016-Nov-28 14:33N 63°10' E 007°47'8 7.5
2016-Nov-28 13:34N 63°15' E 007°34'9 9.3
2016-Nov-28 12:33N 63°11' E 007°15'46 9.0
2016-Nov-28 07:26N 62°46' E 005°52'20 9.3
2016-Nov-28 05:17N 62°30' E 005°23'8 9.2
2016-Nov-28 04:25N 62°24' E 005°13'8 8.7
2016-Nov-28 03:30N 62°18' E 005°01'315 7.3
2016-Nov-26 08:09N 58°45' W 002°49'5 8.0
2016-Nov-26 07:33N 58°43' W 002°57'1211.7
2016-Nov-26 06:32N 58°43' W 003°20'1010.6
2016-Nov-26 05:34N 58°42' W 003°40'201 7.6
2016-Nov-25 03:06N 55°49' W 006°46'5 8.5
2016-Nov-25 02:33N 55°45' W 006°41'9 9.1
2016-Nov-25 01:33N 55°38' W 006°31'1010.4
2016-Nov-25 00:33N 55°30' W 006°20'1110.6
2016-Nov-24 23:33N 55°25' W 006°03'  

Dump ship's entire track history